createdAt,value
2023-01-04T00:01:34.116Z,101690.06
2023-01-04T00:04:03.545Z,101694.34
2023-01-04T00:06:31.609Z,101696.09
2023-01-04T00:08:59.547Z,101700.53
2023-01-04T00:11:27.592Z,101703.00
2023-01-04T00:13:58.631Z,101698.50
2023-01-04T00:16:29.008Z,101702.31
2023-01-04T00:18:57.720Z,101714.06
2023-01-04T00:21:28.923Z,101705.63
2023-01-04T00:23:58.728Z,101712.13
2023-01-04T00:26:28.537Z,101694.25
2023-01-04T00:28:58.162Z,101712.00
2023-01-04T00:31:26.852Z,101705.84
2023-01-04T00:33:55.495Z,101692.31
2023-01-04T00:36:23.843Z,101705.19
2023-01-04T00:39:07.988Z,101707.00
2023-01-04T00:41:57.955Z,101710.03
2023-01-04T00:44:26.213Z,101708.06
2023-01-04T00:46:54.461Z,101714.75
2023-01-04T00:49:22.555Z,101708.44
2023-01-04T00:51:50.629Z,101716.03
2023-01-04T00:54:20.414Z,101709.97
2023-01-04T00:56:48.810Z,101709.25
2023-01-04T00:59:18.964Z,101717.94
2023-01-04T01:01:47.094Z,101715.16
2023-01-04T01:04:17.770Z,101715.22
2023-01-04T01:06:45.818Z,101704.34
2023-01-04T01:09:14.293Z,101696.28
2023-01-04T01:11:44.244Z,101691.94
2023-01-04T01:14:17.742Z,101669.06
2023-01-04T01:16:54.917Z,101695.28
2023-01-04T01:19:24.149Z,101696.91
2023-01-04T01:21:52.089Z,101684.69
2023-01-04T01:24:20.787Z,101685.75
2023-01-04T01:26:50.405Z,101674.59
2023-01-04T01:29:18.448Z,101694.50
2023-01-04T01:31:46.443Z,101690.19
2023-01-04T01:34:14.847Z,101698.91
2023-01-04T01:36:42.946Z,101693.69
2023-01-04T01:39:10.911Z,101716.66
2023-01-04T01:41:39.094Z,101712.56
2023-01-04T01:44:46.888Z,101712.31
2023-01-04T01:47:16.645Z,101713.88
2023-01-04T01:49:47.802Z,101714.72
2023-01-04T01:52:19.318Z,101716.47
2023-01-04T01:54:51.048Z,101716.72
2023-01-04T01:57:23.890Z,101727.88
2023-01-04T01:59:57.252Z,101722.81
2023-01-04T02:02:25.452Z,101732.97
2023-01-04T02:04:53.587Z,101728.59
2023-01-04T02:07:26.083Z,101725.91
2023-01-04T02:09:55.319Z,101720.75
2023-01-04T02:12:23.256Z,101715.50
2023-01-04T02:14:53.950Z,101705.56
2023-01-04T02:17:33.847Z,101711.88
2023-01-04T02:20:23.316Z,101708.19
2023-01-04T02:23:22.514Z,101720.06
2023-01-04T02:26:29.217Z,101718.34
2023-01-04T02:29:19.078Z,101718.28
2023-01-04T02:31:52.804Z,101716.63
2023-01-04T02:34:30.738Z,101713.28
2023-01-04T02:37:01.678Z,101703.09
2023-01-04T02:39:39.266Z,101716.75
2023-01-04T02:42:15.397Z,101717.06
2023-01-04T02:44:53.991Z,101710.22
2023-01-04T02:47:41.499Z,101717.53
2023-01-04T02:50:32.317Z,101719.88
2023-01-04T02:53:02.424Z,101720.59
2023-01-04T02:55:40.872Z,101723.81
2023-01-04T02:58:20.351Z,101711.69
2023-01-04T03:01:16.378Z,101715.31
2023-01-04T03:04:09.982Z,101725.41
2023-01-04T03:06:48.898Z,101721.16
2023-01-04T03:09:21.496Z,101729.84
2023-01-04T03:12:15.285Z,101720.25
2023-01-04T03:14:49.911Z,101708.19
2023-01-04T03:17:22.459Z,101697.06
2023-01-04T03:19:55.545Z,101690.47
2023-01-04T03:22:48.488Z,101683.59
2023-01-04T03:25:38.358Z,101695.00
2023-01-04T03:28:26.483Z,101709.03
2023-01-04T03:31:18.145Z,101706.06
2023-01-04T03:34:04.007Z,101730.47
2023-01-04T03:36:45.424Z,101731.88
2023-01-04T03:39:39.357Z,101715.72
2023-01-04T03:42:32.541Z,101716.31
2023-01-04T03:45:30.045Z,101721.38
2023-01-04T03:48:23.802Z,101723.97
2023-01-04T03:50:56.311Z,101678.94
2023-01-04T03:53:27.124Z,101718.75
2023-01-04T03:55:57.839Z,101712.00
2023-01-04T03:58:26.458Z,101719.78
2023-01-04T04:00:54.714Z,101717.94
2023-01-04T04:03:22.701Z,101727.31
2023-01-04T04:06:08.211Z,101719.63
2023-01-04T04:08:37.524Z,101718.69
2023-01-04T04:11:19.563Z,101722.06
2023-01-04T04:13:47.527Z,101724.53
2023-01-04T04:16:15.511Z,101712.47
2023-01-04T04:18:43.617Z,101733.59
2023-01-04T04:21:11.593Z,101732.69
2023-01-04T04:23:41.261Z,101732.13
2023-01-04T04:26:09.381Z,101730.78
2023-01-04T04:28:37.353Z,101688.28
2023-01-04T04:31:05.562Z,101727.09
2023-01-04T04:33:33.478Z,101738.09
2023-01-04T04:36:01.389Z,101737.84
2023-01-04T04:38:29.331Z,101743.66
2023-01-04T04:41:15.547Z,101736.97
2023-01-04T04:43:43.568Z,101734.25
2023-01-04T04:46:11.627Z,101728.00
2023-01-04T04:48:39.620Z,101718.28
2023-01-04T04:51:07.558Z,101723.13
2023-01-04T04:53:35.561Z,101725.47
2023-01-04T04:56:05.074Z,101729.06
2023-01-04T04:58:32.994Z,101731.63
2023-01-04T05:01:00.958Z,101742.72
2023-01-04T05:03:28.939Z,101750.50
2023-01-04T05:05:56.877Z,101758.34
2023-01-04T05:08:25.005Z,101766.50
2023-01-04T05:10:52.962Z,101767.06
2023-01-04T05:13:21.312Z,101772.13
2023-01-04T05:15:50.627Z,101768.50
2023-01-04T05:18:20.135Z,101772.66
2023-01-04T05:20:48.706Z,101771.66
2023-01-04T05:23:17.966Z,101756.28
2023-01-04T05:25:45.903Z,101771.59
2023-01-04T05:28:13.875Z,101773.28
2023-01-04T05:30:51.258Z,101777.50
2023-01-04T05:33:20.233Z,101785.22
2023-01-04T05:35:48.158Z,101776.47
2023-01-04T05:38:16.563Z,101761.78
2023-01-04T05:40:44.814Z,101761.81
2023-01-04T05:43:13.882Z,101773.00
2023-01-04T05:45:45.491Z,101781.06
2023-01-04T05:48:13.455Z,101781.97
2023-01-04T05:50:41.423Z,101782.84
2023-01-04T05:53:09.428Z,101781.28
2023-01-04T05:55:37.386Z,101782.84
2023-01-04T05:58:05.764Z,101781.81
2023-01-04T06:00:33.696Z,101784.09
2023-01-04T06:03:03.236Z,101772.19
2023-01-04T06:05:31.312Z,101771.97
2023-01-04T06:07:59.274Z,101767.91
2023-01-04T06:10:27.196Z,101774.06
2023-01-04T06:12:55.170Z,101768.38
2023-01-04T06:15:23.112Z,101757.19
2023-01-04T06:17:51.114Z,101765.69
2023-01-04T06:20:20.644Z,101773.88
2023-01-04T06:22:48.585Z,101778.19
2023-01-04T06:25:17.418Z,101777.00
2023-01-04T06:27:45.384Z,101778.56
2023-01-04T06:30:13.486Z,101777.69
2023-01-04T06:32:41.486Z,101781.00
2023-01-04T06:35:09.809Z,101778.53
2023-01-04T06:37:39.126Z,101785.59
2023-01-04T06:40:08.575Z,101792.41
2023-01-04T06:42:45.677Z,101800.09
2023-01-04T06:45:13.813Z,101808.66
2023-01-04T06:47:43.700Z,101801.22
2023-01-04T06:50:12.547Z,101819.03
2023-01-04T06:52:43.152Z,101826.50
2023-01-04T06:55:11.408Z,101829.81
2023-01-04T06:57:39.350Z,101828.44
2023-01-04T07:00:09.226Z,101825.56
2023-01-04T07:02:37.899Z,101821.31
2023-01-04T07:05:06.696Z,101827.06
2023-01-04T07:07:35.650Z,101835.34
2023-01-04T07:10:09.824Z,101843.28
2023-01-04T07:12:39.193Z,101841.59
2023-01-04T07:15:38.952Z,101840.13
2023-01-04T07:17:56.373Z,101858.97
2023-01-04T07:20:24.521Z,101861.19
2023-01-04T07:22:52.548Z,101865.41
2023-01-04T07:25:22.063Z,101866.94
2023-01-04T07:27:53.241Z,101853.22
2023-01-04T07:30:21.876Z,101855.78
2023-01-04T07:32:49.906Z,101847.41
2023-01-04T07:35:17.938Z,101846.44
2023-01-04T07:37:45.912Z,101849.75
2023-01-04T07:40:13.939Z,101844.56
2023-01-04T07:42:43.290Z,101853.09
2023-01-04T07:45:11.804Z,101846.81
2023-01-04T07:47:39.739Z,101858.44
2023-01-04T07:50:08.455Z,101856.63
2023-01-04T07:52:36.414Z,101849.56
2023-01-04T07:55:04.336Z,101838.91
2023-01-04T07:57:32.254Z,101837.09
2023-01-04T08:00:01.542Z,101851.50
2023-01-04T08:02:29.532Z,101853.38
2023-01-04T08:04:57.649Z,101861.31
2023-01-04T08:07:25.640Z,101851.88
2023-01-04T08:09:53.584Z,101867.47
2023-01-04T08:12:21.503Z,101866.16
2023-01-04T08:14:49.756Z,101868.53
2023-01-04T08:17:19.074Z,101873.34
2023-01-04T08:19:47.628Z,101871.47
2023-01-04T08:22:15.739Z,101881.09
2023-01-04T08:24:43.888Z,101883.66
2023-01-04T08:27:12.194Z,101887.13
2023-01-04T08:29:40.181Z,101888.56
2023-01-04T08:32:08.112Z,101894.34
2023-01-04T08:34:37.445Z,101898.22
2023-01-04T08:37:05.367Z,101884.81
2023-01-04T08:39:36.187Z,101901.75
2023-01-04T08:42:18.064Z,101906.84
2023-01-04T08:44:48.642Z,101902.00
2023-01-04T08:47:16.596Z,101900.41
2023-01-04T08:49:45.931Z,101899.84
2023-01-04T08:52:15.931Z,101899.00
2023-01-04T08:54:43.891Z,101908.47
2023-01-04T08:57:11.813Z,101905.91
2023-01-04T08:59:39.780Z,101904.66
2023-01-04T09:02:20.994Z,101901.00
2023-01-04T09:04:50.584Z,101893.81
2023-01-04T09:07:18.987Z,101900.50
2023-01-04T09:09:46.909Z,101896.78
2023-01-04T09:12:14.949Z,101883.38
2023-01-04T09:14:42.964Z,101893.03
2023-01-04T09:17:10.916Z,101877.84
2023-01-04T09:19:38.873Z,101877.41
2023-01-04T09:22:08.320Z,101870.06
2023-01-04T09:24:36.526Z,101868.78
2023-01-04T09:27:04.791Z,101877.03
2023-01-04T09:29:32.741Z,101876.47
2023-01-04T09:32:00.714Z,101864.06
2023-01-04T09:34:28.922Z,101868.16
2023-01-04T09:36:56.916Z,101867.63
2023-01-04T09:39:30.439Z,101850.41
2023-01-04T09:42:00.162Z,101868.22
2023-01-04T09:47:37.848Z,101870.78
2023-01-04T09:50:12.251Z,101868.75
2023-01-04T09:52:48.891Z,101861.84
2023-01-04T09:55:39.534Z,101855.47
2023-01-04T09:58:26.013Z,101853.94
2023-01-04T10:01:01.054Z,101853.72
2023-01-04T10:03:32.437Z,101858.78
2023-01-04T10:06:01.561Z,101866.06
2023-01-04T10:08:31.521Z,101873.34
2023-01-04T10:11:11.961Z,101881.66
2023-01-04T10:13:53.133Z,101877.09
2023-01-04T10:17:10.413Z,101866.84
2023-01-04T10:22:31.096Z,101866.44
2023-01-04T10:25:14.372Z,101882.72
2023-01-04T10:27:53.173Z,101872.44
2023-01-04T10:30:30.387Z,101871.72
2023-01-04T10:33:11.823Z,101868.94
2023-01-04T10:35:43.559Z,101872.22
2023-01-04T10:38:18.029Z,101871.72
2023-01-04T10:40:48.164Z,101857.88
2023-01-04T10:43:28.936Z,101859.88
2023-01-04T10:46:03.534Z,101859.97
2023-01-04T10:48:42.753Z,101845.31
2023-01-04T10:51:13.898Z,101865.56
2023-01-04T10:53:45.787Z,101879.16
2023-01-04T10:56:24.058Z,101874.25
2023-01-04T10:59:03.208Z,101878.28
2023-01-04T11:01:36.496Z,101869.50
2023-01-04T11:04:10.458Z,101868.25
2023-01-04T11:06:43.769Z,101866.47
2023-01-04T11:09:24.506Z,101879.22
2023-01-04T11:11:56.288Z,101879.16
2023-01-04T11:14:27.694Z,101881.47
2023-01-04T11:17:02.706Z,101887.38
2023-01-04T11:19:31.242Z,101886.31
2023-01-04T11:22:03.238Z,101889.75
2023-01-04T11:24:33.866Z,101880.03
2023-01-04T11:27:06.803Z,101878.81
2023-01-04T11:29:42.861Z,101883.22
2023-01-04T11:32:20.732Z,101886.19
2023-01-04T11:34:52.133Z,101885.63
2023-01-04T11:37:34.723Z,101887.72
2023-01-04T11:40:18.978Z,101883.22
2023-01-04T11:42:48.364Z,101887.78
2023-01-04T11:45:29.093Z,101822.38
2023-01-04T11:47:58.383Z,101889.28
2023-01-04T11:50:41.285Z,101889.38
2023-01-04T11:53:35.342Z,101885.91
2023-01-04T11:56:13.747Z,101897.03
2023-01-04T11:58:42.227Z,101887.97
2023-01-04T12:01:21.537Z,101878.84
2023-01-04T12:03:49.582Z,101876.28
2023-01-04T12:06:20.377Z,101876.75
2023-01-04T12:08:48.563Z,101868.09
2023-01-04T12:11:24.237Z,101876.75
2023-01-04T12:13:52.778Z,101876.84
2023-01-04T12:16:29.608Z,101869.22
2023-01-04T12:18:57.767Z,101880.13
2023-01-04T12:21:27.727Z,101876.81
2023-01-04T12:23:56.773Z,101878.25
2023-01-04T12:26:25.016Z,101870.91
2023-01-04T12:29:13.919Z,101875.09
2023-01-04T12:31:43.294Z,101875.69
2023-01-04T12:34:43.520Z,101876.75
2023-01-04T12:37:32.757Z,101868.03
2023-01-04T12:40:00.723Z,101878.91
2023-01-04T12:42:28.708Z,101883.69
2023-01-04T12:45:24.241Z,101877.84
2023-01-04T12:48:12.941Z,101883.22
2023-01-04T12:51:32.329Z,101878.03
2023-01-04T12:54:02.921Z,101879.00
2023-01-04T12:57:08.061Z,101883.56
2023-01-04T12:59:38.826Z,101876.44
2023-01-04T13:02:17.665Z,101873.75
2023-01-04T13:04:47.731Z,101873.09
2023-01-04T13:07:20.991Z,101876.44
2023-01-04T13:09:57.739Z,101864.56
2023-01-04T13:13:06.238Z,101875.00
2023-01-04T13:15:46.896Z,101872.13
2023-01-04T13:18:33.614Z,101869.09
2023-01-04T13:21:04.359Z,101865.00
2023-01-04T13:23:32.558Z,101866.50
2023-01-04T13:26:34.275Z,101867.44
2023-01-04T13:29:13.172Z,101875.38
2023-01-04T13:31:47.455Z,101874.50
2023-01-04T13:34:21.283Z,101872.06
2023-01-04T13:37:09.150Z,101863.50
2023-01-04T13:39:37.971Z,101866.19
2023-01-04T13:42:08.118Z,101872.38
2023-01-04T13:45:19.712Z,101872.53
2023-01-04T13:47:51.996Z,101874.19
2023-01-04T13:50:32.313Z,101876.84
2023-01-04T13:53:07.674Z,101846.88
2023-01-04T13:55:38.707Z,101873.19
2023-01-04T13:58:08.503Z,101875.69
2023-01-04T14:00:44.777Z,101873.31
2023-01-04T14:03:31.721Z,101891.19
2023-01-04T14:06:13.096Z,101892.22
2023-01-04T14:08:45.968Z,101881.59
2023-01-04T14:11:40.060Z,101880.59
2023-01-04T14:14:20.399Z,101891.59
2023-01-04T14:16:49.093Z,101885.00
2023-01-04T14:19:42.835Z,101883.00
2023-01-04T14:22:41.500Z,101895.97
2023-01-04T14:25:56.525Z,101895.75
2023-01-04T14:28:49.570Z,101892.56
2023-01-04T14:31:31.755Z,101889.25
2023-01-04T14:34:00.089Z,101890.88
2023-01-04T14:36:30.522Z,101890.94
2023-01-04T14:39:09.328Z,101880.38
2023-01-04T14:41:39.239Z,101893.41
2023-01-04T14:44:12.700Z,101891.44
2023-01-04T14:46:41.926Z,101894.78
2023-01-04T14:49:10.413Z,101892.38
2023-01-04T14:51:42.351Z,101894.59
2023-01-04T14:54:15.323Z,101893.81
2023-01-04T14:56:45.995Z,101885.09
2023-01-04T14:59:15.464Z,101888.06
2023-01-04T15:01:43.488Z,101888.16
2023-01-04T15:04:11.559Z,101876.97
2023-01-04T15:06:49.089Z,101861.34
2023-01-04T15:09:17.183Z,101872.75
2023-01-04T15:11:45.136Z,101880.16
2023-01-04T15:14:13.087Z,101893.81
2023-01-04T15:16:42.549Z,101878.81
2023-01-04T15:19:10.686Z,101882.19
2023-01-04T15:21:41.600Z,101885.59
2023-01-04T15:24:10.432Z,101887.34
2023-01-04T15:26:39.061Z,101898.38
2023-01-04T15:29:08.635Z,101888.13
2023-01-04T15:31:39.926Z,101898.28
2023-01-04T15:34:10.844Z,101900.84
2023-01-04T15:36:41.286Z,101912.78
2023-01-04T15:39:12.348Z,101903.31
2023-01-04T15:42:00.218Z,101911.84
2023-01-04T15:44:28.430Z,101906.03
2023-01-04T15:46:59.421Z,101906.78
2023-01-04T15:49:30.549Z,101912.81
2023-01-04T15:51:58.888Z,101906.63
2023-01-04T15:54:27.053Z,101906.59
2023-01-04T15:56:55.168Z,101886.16
2023-01-04T15:59:23.230Z,101903.47
2023-01-04T16:01:51.316Z,101914.31
2023-01-04T16:04:19.449Z,101914.41
2023-01-04T16:06:48.797Z,101910.75
2023-01-04T16:09:17.106Z,101920.03
2023-01-04T16:11:58.938Z,101924.31
2023-01-04T16:14:26.915Z,101922.56
2023-01-04T16:16:54.935Z,101920.34
2023-01-04T16:19:23.238Z,101911.72
2023-01-04T16:21:52.567Z,101914.28
2023-01-04T16:24:45.358Z,101906.81
2023-01-04T16:27:09.732Z,101922.59
2023-01-04T16:29:37.862Z,101904.59
2023-01-04T16:32:06.289Z,101912.84
2023-01-04T16:34:34.276Z,101915.97
2023-01-04T16:37:03.851Z,101902.97
2023-01-04T16:40:05.373Z,101912.16
2023-01-04T16:42:20.205Z,101901.06
2023-01-04T16:44:48.190Z,101909.78
2023-01-04T16:47:16.272Z,101905.16
2023-01-04T16:49:44.431Z,101895.16
2023-01-04T16:52:14.659Z,101893.34
2023-01-04T16:54:42.547Z,101874.47
2023-01-04T16:57:10.474Z,101876.34
2023-01-04T16:59:38.427Z,101874.50
2023-01-04T17:02:06.467Z,101881.06
2023-01-04T17:04:34.459Z,101871.34
2023-01-04T17:07:02.399Z,101879.81
2023-01-04T17:09:31.707Z,101880.09
2023-01-04T17:15:07.884Z,101889.38
2023-01-04T17:17:36.738Z,101895.50
2023-01-04T17:20:06.478Z,101889.09
2023-01-04T17:22:35.347Z,101876.31
2023-01-04T17:25:05.810Z,101888.88
2023-01-04T17:27:33.856Z,101885.38
2023-01-04T17:30:01.893Z,101894.19
2023-01-04T17:32:29.902Z,101895.97
2023-01-04T17:34:58.860Z,101894.25
2023-01-04T17:37:27.127Z,101901.88
2023-01-04T17:39:55.127Z,101892.63
2023-01-04T17:42:24.493Z,101889.09
2023-01-04T17:44:52.811Z,101896.00
2023-01-04T17:47:20.835Z,101890.16
2023-01-04T17:49:49.015Z,101882.63
2023-01-04T17:52:24.457Z,101869.91
2023-01-04T17:54:56.889Z,101882.97
2023-01-04T17:57:26.553Z,101844.28
2023-01-04T17:59:54.507Z,101877.63
2023-01-04T18:02:22.442Z,101884.66
2023-01-04T18:04:50.487Z,101891.00
2023-01-04T18:07:20.037Z,101894.69
2023-01-04T18:09:47.978Z,101887.19
2023-01-04T18:12:16.991Z,101882.19
2023-01-04T18:14:46.330Z,101878.16
2023-01-04T18:17:14.509Z,101884.41
2023-01-04T18:19:46.241Z,101890.78
2023-01-04T18:22:14.468Z,101884.91
2023-01-04T18:24:42.452Z,101885.94
2023-01-04T18:27:21.933Z,101890.25
2023-01-04T18:29:52.447Z,101885.25
2023-01-04T18:32:20.608Z,101883.78
2023-01-04T18:34:48.596Z,101884.84
2023-01-04T18:37:18.537Z,101882.56
2023-01-04T18:39:47.327Z,101878.38
2023-01-04T18:42:15.438Z,101875.09
2023-01-04T18:44:48.437Z,101870.94
2023-01-04T18:47:20.094Z,101864.25
2023-01-04T18:49:48.390Z,101871.22
2023-01-04T18:52:16.971Z,101858.44
2023-01-04T18:54:45.287Z,101863.78
2023-01-04T18:57:13.658Z,101863.91
2023-01-04T18:59:41.854Z,101865.75
2023-01-04T19:02:16.741Z,101863.50
2023-01-04T19:04:46.705Z,101866.94
2023-01-04T19:07:14.773Z,101884.25
2023-01-04T19:09:43.604Z,101881.78
2023-01-04T19:12:12.245Z,101875.84
2023-01-04T19:14:41.858Z,101878.59
2023-01-04T19:17:10.228Z,101885.63
2023-01-04T19:19:38.669Z,101879.59
2023-01-04T19:22:07.981Z,101883.91
2023-01-04T19:24:35.922Z,101885.63
2023-01-04T19:27:05.370Z,101892.50
2023-01-04T19:29:36.148Z,101891.63
2023-01-04T19:32:04.565Z,101894.19
2023-01-04T19:34:32.533Z,101882.03
2023-01-04T19:37:00.811Z,101869.81
2023-01-04T19:39:30.391Z,101871.47
2023-01-04T19:41:58.328Z,101871.38
2023-01-04T19:44:26.260Z,101863.63
2023-01-04T19:46:54.201Z,101856.69
2023-01-04T19:49:22.135Z,101851.38
2023-01-04T19:51:51.788Z,101850.44
2023-01-04T19:54:25.179Z,101818.97
2023-01-04T19:56:55.364Z,101835.72
2023-01-04T19:59:23.696Z,101842.91
2023-01-04T20:01:51.888Z,101846.13
2023-01-04T20:04:20.183Z,101845.97
2023-01-04T20:06:48.165Z,101851.81
2023-01-04T20:09:18.475Z,101850.69
2023-01-04T20:11:46.446Z,101834.34
2023-01-04T20:14:15.771Z,101841.06
2023-01-04T20:16:43.791Z,101842.78
2023-01-04T20:19:11.771Z,101848.75
2023-01-04T20:21:39.718Z,101836.53
2023-01-04T20:24:08.285Z,101834.59
2023-01-04T20:26:36.336Z,101838.91
2023-01-04T20:29:05.028Z,101830.59
2023-01-04T20:31:36.300Z,101834.13
2023-01-04T20:34:06.037Z,101827.72
2023-01-04T20:36:34.043Z,101814.63
2023-01-04T20:39:03.648Z,101817.72
2023-01-04T20:41:32.452Z,101822.66
2023-01-04T20:44:00.056Z,101810.38
2023-01-04T20:46:32.698Z,101804.31
2023-01-04T20:49:02.758Z,101804.28
2023-01-04T20:51:31.952Z,101780.41
2023-01-04T20:54:00.814Z,101802.31
2023-01-04T20:56:31.625Z,101775.84
2023-01-04T20:58:59.606Z,101794.41
2023-01-04T21:01:27.673Z,101796.22
2023-01-04T21:03:55.723Z,101796.06
2023-01-04T21:06:25.887Z,101785.00
2023-01-04T21:08:55.129Z,101791.75
2023-01-04T21:11:23.802Z,101791.69
2023-01-04T21:13:52.851Z,101784.03
2023-01-04T21:16:20.968Z,101781.44
2023-01-04T21:18:48.975Z,101774.41
2023-01-04T21:21:19.260Z,101773.69
2023-01-04T21:23:56.065Z,101774.47
2023-01-04T21:26:25.704Z,101774.00
2023-01-04T21:28:53.642Z,101766.78
2023-01-04T21:31:24.656Z,101767.56
2023-01-04T21:33:53.337Z,101769.56
2023-01-04T21:36:23.849Z,101763.56
2023-01-04T21:38:54.812Z,101757.59
2023-01-04T21:41:24.859Z,101757.63
2023-01-04T21:43:54.078Z,101754.69
2023-01-04T21:46:23.269Z,101760.38
2023-01-04T21:48:54.688Z,101744.06
2023-01-04T21:51:22.889Z,101743.28
2023-01-04T21:53:51.006Z,101743.38
2023-01-04T21:56:22.996Z,101741.56
2023-01-04T21:58:51.517Z,101740.59
2023-01-04T22:01:21.522Z,101739.09
2023-01-04T22:03:49.821Z,101746.00
2023-01-04T22:06:17.975Z,101737.13
2023-01-04T22:08:46.619Z,101732.66
2023-01-04T22:11:16.236Z,101732.66
2023-01-04T22:13:46.034Z,101698.53
2023-01-04T22:16:16.145Z,101723.72
2023-01-04T22:18:47.275Z,101717.34
2023-01-04T22:21:16.980Z,101730.75
2023-01-04T22:23:44.988Z,101727.75
2023-01-04T22:26:12.966Z,101724.34
2023-01-04T22:28:41.884Z,101721.44
2023-01-04T22:31:13.825Z,101715.38
2023-01-04T22:33:42.781Z,101718.59
2023-01-04T22:36:19.138Z,101710.88
2023-01-04T22:38:50.536Z,101711.03
2023-01-04T22:41:21.489Z,101701.66
2023-01-04T22:43:54.676Z,101696.88
2023-01-04T22:46:24.440Z,101705.31
2023-01-04T22:48:52.557Z,101698.09
2023-01-04T22:51:21.553Z,101695.63
2023-01-04T22:53:50.131Z,101689.25
2023-01-04T22:56:21.808Z,101694.72
2023-01-04T22:58:54.145Z,101688.47
2023-01-04T23:01:25.213Z,101685.03
2023-01-04T23:03:53.483Z,101669.69
2023-01-04T23:06:22.307Z,101666.00
2023-01-04T23:08:55.892Z,101660.47
2023-01-04T23:11:24.718Z,101663.34
2023-01-04T23:13:52.927Z,101658.00
2023-01-04T23:16:26.244Z,101647.19
2023-01-04T23:18:57.378Z,101656.44
2023-01-04T23:21:25.398Z,101661.19
2023-01-04T23:23:53.362Z,101661.78
2023-01-04T23:26:23.346Z,101653.94
2023-01-04T23:28:51.643Z,101639.50
2023-01-04T23:31:22.209Z,101647.25
2023-01-04T23:33:54.107Z,101649.25
2023-01-04T23:36:25.304Z,101633.84
2023-01-04T23:38:55.349Z,101639.44
2023-01-04T23:41:44.484Z,101630.25
2023-01-04T23:44:19.034Z,101638.38
2023-01-04T23:46:47.670Z,101632.38
2023-01-04T23:49:15.656Z,101622.22
2023-01-04T23:51:44.979Z,101628.47
2023-01-04T23:54:12.958Z,101613.75
2023-01-04T23:56:41.144Z,101620.63
2023-01-04T23:59:09.257Z,101617.00
